Flight Track Log - Related Links

Times and Time Zones

All times are in EDT time to prevent confusion due to time zone crossing. See the FLG3729 flight status page for this flight to view local times or setup timezone preferences in your user account.

Time Position Orientation Groundspeed Altitude Reporting Facility
EDT Latitude Longitude Course Direction KTS MPH feet Rate Location/Type
Sun 06:14:43 AM 42.7672 -73.8061 304° West 162 186 1,300  Level Boston Center
Sun 06:15:51 AM 42.8150 -73.8356 336° Northwest 196 226 3,500 2,203 Climbing Boston Center
Sun 06:16:51 AM 42.8556 -73.9100 307° West 256 295 6,000 2,597 Climbing Boston Center
Sun 06:18:05 AM 42.9006 -73.9906 307° West 251 289 9,300 2,194 Climbing Boston Center
Sun 06:19:05 AM 42.9511 -74.0883 305° West 282 325 10,900 1,721 Climbing Boston Center
Sun 06:20:00 AM 42.8680 -74.5361 304° West  Level FlightAware Approximate
Sun 06:20:07 AM 42.9978 -74.1803 305° West 316 364 12,800  Level Boston Center
Sun 06:21:06 AM 43.0544 -74.2928 305° West 326 375 14,800 1,795 Climbing Boston Center
Sun 06:22:04 AM 43.1028 -74.3881 305° West 333 383 16,300 1,475 Climbing Boston Center
Sun 06:23:04 AM 43.1592 -74.4950 306° West 339 390 17,700 1,550 Climbing Boston Center
Sun 06:24:04 AM 43.2156 -74.6053 305° West 344 396 19,400 1,537 Climbing Boston Center
Sun 06:25:05 AM 43.2697 -74.7183 303° West 349 402 20,800 1,230 Climbing Boston Center
Sun 06:26:06 AM 43.2650 -74.8494 267° West 337 388 21,900 1,059 Climbing Boston Center
Sun 06:27:04 AM 43.2556 -74.9858 265° West 342 394 22,900 950 Climbing Boston Center
Sun 06:28:06 AM 43.2442 -75.1253 264° West 356 410 23,800 694 Climbing Boston Center
Sun 06:29:05 AM 43.2353 -75.2389 264° West 369 425 24,300 706 Climbing Boston Center
Sun 06:30:05 AM 43.2250 -75.3950 265° West 376 433 25,200 908 Climbing Boston Center
Sun 06:31:04 AM 43.2122 -75.5656 264° West 382 440 26,100 1,000 Climbing Boston Center
Sun 06:32:05 AM 43.2017 -75.7103 264° West 387 445 27,200 950 Climbing Boston Center
Sun 06:33:04 AM 43.1892 -75.8519 263° West 382 440 28,000 312 Climbing Boston Center
Sun 06:34:39 AM 43.1708 -76.0822 264° West 385 443 28,000  Level Cleveland Center
Sun 06:35:39 AM 43.1597 -76.2281 264° West 392 451 28,000  Level Cleveland Center
Sun 06:36:39 AM 43.1467 -76.3772 263° West 392 451 28,000  Level Cleveland Center
Sun 06:37:39 AM 43.1333 -76.5289 263° West 392 451 28,000  Level Cleveland Center
Sun 06:38:39 AM 43.1217 -76.6803 264° West 397 457 28,000  Level Cleveland Center
Sun 06:39:39 AM 43.1094 -76.8119 263° West 397 457 28,000  Level Cleveland Center
Sun 06:40:39 AM 43.0956 -76.9636 263° West 397 457 28,000  Level Cleveland Center
Sun 06:41:39 AM 43.0814 -77.1150 263° West 402 463 28,000  Level Cleveland Center
Sun 06:42:39 AM 43.0672 -77.2667 263° West 408 470 28,000  Level Cleveland Center
Sun 06:43:39 AM 43.0525 -77.4181 262° West 408 470 28,000  Level Cleveland Center
Sun 06:44:39 AM 43.0400 -77.5664 263° West 408 470 28,000  Level Cleveland Center
Sun 06:45:39 AM 43.0250 -77.7147 262° West 408 470 28,000  Level Cleveland Center
Sun 06:46:39 AM 43.0097 -77.8661 262° West 408 470 28,000  Level Cleveland Center
Sun 06:47:39 AM 42.9942 -78.0086 262° West 403 464 28,000  Level Cleveland Center
Sun 06:48:39 AM 42.9808 -78.1597 263° West 403 464 28,000  Level Cleveland Center
Sun 06:49:39 AM 42.9633 -78.3250 262° West 403 464 28,000  Level Cleveland Center
Sun 06:50:39 AM 42.9475 -78.4731 262° West 403 464 28,000  Level Cleveland Center
Sun 06:51:39 AM 42.9333 -78.6208 263° West 403 464 28,000  Level Cleveland Center
Sun 06:52:39 AM 42.9128 -78.7719 260° West 403 464 28,000  Level Cleveland Center
Sun 06:53:39 AM 42.8903 -78.9228 259° West 403 464 28,000  Level Cleveland Center
Sun 06:54:39 AM 42.8714 -79.0706 260° West 409 471 28,000  Level Cleveland Center
Sun 06:55:39 AM 42.8481 -79.2211 258° West 409 471 28,000  Level Cleveland Center
Sun 06:56:39 AM 42.8289 -79.3686 260° West 409 471 28,000  Level Cleveland Center
Sun 06:57:39 AM 42.8056 -79.5192 258° West 409 471 28,000  Level Cleveland Center
Sun 06:58:39 AM 42.7817 -79.6694 258° West 409 471 28,000  Level Cleveland Center
Sun 06:59:39 AM 42.7600 -79.8197 259° West 409 471 28,000  Level Cleveland Center
Sun 07:00:39 AM 42.7483 -79.9669 264° West 409 471 28,000  Level Cleveland Center
Sun 07:01:39 AM 42.7386 -80.1028 264° West 409 471 28,000  Level Cleveland Center
Sun 07:02:39 AM 42.7369 -80.2581 269° West 409 471 28,000  Level Cleveland Center
Sun 07:03:39 AM 42.7289 -80.4053 266° West 397 457 28,000  Level Cleveland Center
Sun 07:04:39 AM 42.7208 -80.5578 266° West 408 470 28,000  Level Cleveland Center
Sun 07:05:39 AM 42.7144 -80.7217 267° West 403 464 28,000  Level Cleveland Center
Sun 07:06:39 AM 42.7078 -80.8742 267° West 403 464 28,000  Level Cleveland Center
Sun 07:07:39 AM 42.6908 -81.0211 261° West 403 464 28,000  Level Cleveland Center
Sun 07:08:39 AM 42.6756 -81.1706 262° West 409 471 28,000  Level Cleveland Center
Sun 07:09:39 AM 42.6578 -81.3228 261° West 404 465 28,000  Level Cleveland Center
Sun 07:10:39 AM 42.6403 -81.4639 260° West 404 465 28,000  Level Cleveland Center
Sun 07:11:39 AM 42.6244 -81.6103 262° West 409 471 28,000 -1,000 Level Cleveland Center
Sun 07:12:39 AM 42.6064 -81.7567 261° West 409 471 26,000 -2,350 Descending Cleveland Center
Sun 07:13:39 AM 42.5903 -81.8833 260° West 392 451 23,300 -2,850 Descending Cleveland Center
Sun 07:14:39 AM 42.5719 -82.0267 260° West 387 445 20,300 -2,900 Descending Cleveland Center
Sun 07:15:39 AM 42.5556 -82.1644 261° West 387 445 17,500 -2,680 Descending Cleveland Center
Sun 07:16:22 AM 42.5436 -82.2825 262° West 368 423 15,700 -2,100 Descending Cleveland Center
Sun 07:17:39 AM 42.5225 -82.4369 260° West 381 438 13,300 -1,620 Descending Cleveland Center
Sun 07:18:39 AM 42.4994 -82.5686 257° West 367 422 12,000 -650 Descending Cleveland Center
Sun 07:19:39 AM 42.4556 -82.6881 244° Southwest 362 417 12,000  Level Cleveland Center
Sun 07:20:39 AM 42.4136 -82.8078 245° Southwest 362 417 12,000  Level Cleveland Center
Sun 07:21:39 AM 42.3717 -82.9272 245° Southwest 362 417 12,000  Level Cleveland Center
Sun 07:22:39 AM 42.3275 -83.0492 244° Southwest 362 417 12,000  Level Cleveland Center
Sun 07:23:47 AM 42.2989 -83.2136 257° West 352 405 12,000  Level Cleveland Center
Sun 07:24:39 AM 42.2778 -83.3053 253° West 334 384 12,000 -54 Level Cleveland Center
Sun 07:25:39 AM 42.2633 -83.3944 258° West 277 319 11,900 -870 Descending Cleveland Center
Sun 07:26:50 AM 42.2256 -83.4825 240° Southwest 258 297 10,100 -1,381 Descending Cleveland Center
Sun 07:27:45 AM 42.1661 -83.5247 208° Southwest 254 292 9,000 -1,138 Descending Cleveland Center
Sun 07:28:46 AM 42.1086 -83.5697 210° Southwest 230 265 7,900 -1,190 Descending Cleveland Center
Sun 07:29:46 AM 42.0547 -83.5617 174° South 212 244 6,600 -1,774 Descending Cleveland Center
Sun 07:30:41 AM 42.0564 -83.5000 88° East 182 209 4,500 -1,759 Descending Cleveland Center
Sun 07:31:42 AM 42.0947 -83.4656 34° Northeast 161 185 3,200 -1,078 Descending Cleveland Center
Sun 07:32:49 AM 42.1372 -83.4339 29° Northeast 149 171 2,200 -797 Descending Cleveland Center
Sun 07:33:50 AM 42.1692 -83.4072 32° Northeast 125 144 1,500 -689 Descending Cleveland Center

Login

Don't have an account? Register now (free) for customized features, flight alerts, and more!